sensor_id;sensor_type;location;lat;lon;timestamp;P1;durP1;ratioP1;P2;durP2;ratioP2
77678;SDS011;66835;49.478;10.724;2023-04-30T00:01:56;0.40;;;0.40;;
77678;SDS011;66835;49.478;10.724;2023-04-30T00:04:21;0.20;;;0.20;;
77678;SDS011;66835;49.478;10.724;2023-04-30T00:06:48;0.20;;;0.20;;
77678;SDS011;66835;49.478;10.724;2023-04-30T00:09:13;0.40;;;0.40;;
77678;SDS011;66835;49.478;10.724;2023-04-30T00:11:39;0.32;;;0.32;;
77678;SDS011;66835;49.478;10.724;2023-04-30T00:14:04;0.30;;;0.30;;
77678;SDS011;66835;49.478;10.724;2023-04-30T00:16:30;0.30;;;0.30;;
77678;SDS011;66835;49.478;10.724;2023-04-30T00:18:55;0.33;;;0.33;;
77678;SDS011;66835;49.478;10.724;2023-04-30T00:21:20;0.20;;;0.20;;
77678;SDS011;66835;49.478;10.724;2023-04-30T00:23:47;0.50;;;0.50;;
77678;SDS011;66835;49.478;10.724;2023-04-30T00:26:12;0.30;;;0.30;;
77678;SDS011;66835;49.478;10.724;2023-04-30T00:28:38;0.30;;;0.30;;
77678;SDS011;66835;49.478;10.724;2023-04-30T00:31:03;0.20;;;0.20;;
77678;SDS011;66835;49.478;10.724;2023-04-30T00:33:33;0.28;;;0.22;;
77678;SDS011;66835;49.478;10.724;2023-04-30T00:35:58;0.22;;;0.22;;
77678;SDS011;66835;49.478;10.724;2023-04-30T00:38:23;0.17;;;0.17;;
77678;SDS011;66835;49.478;10.724;2023-04-30T00:40:50;0.20;;;0.20;;
77678;SDS011;66835;49.478;10.724;2023-04-30T00:43:16;0.25;;;0.25;;
77678;SDS011;66835;49.478;10.724;2023-04-30T00:45:41;0.28;;;0.28;;
77678;SDS011;66835;49.478;10.724;2023-04-30T00:48:07;0.30;;;0.30;;
77678;SDS011;66835;49.478;10.724;2023-04-30T00:50:32;0.30;;;0.30;;
77678;SDS011;66835;49.478;10.724;2023-04-30T00:52:59;0.20;;;0.20;;
77678;SDS011;66835;49.478;10.724;2023-04-30T00:55:25;0.30;;;0.30;;
77678;SDS011;66835;49.478;10.724;2023-04-30T00:57:52;0.45;;;0.30;;
77678;SDS011;66835;49.478;10.724;2023-04-30T01:00:17;0.30;;;0.30;;
77678;SDS011;66835;49.478;10.724;2023-04-30T01:02:43;0.20;;;0.20;;
77678;SDS011;66835;49.478;10.724;2023-04-30T01:05:08;0.35;;;0.35;;
77678;SDS011;66835;49.478;10.724;2023-04-30T01:07:34;0.30;;;0.30;;
77678;SDS011;66835;49.478;10.724;2023-04-30T01:10:00;0.40;;;0.40;;
77678;SDS011;66835;49.478;10.724;2023-04-30T01:12:28;0.20;;;0.20;;
77678;SDS011;66835;49.478;10.724;2023-04-30T01:15:03;0.32;;;0.32;;
77678;SDS011;66835;49.478;10.724;2023-04-30T01:17:33;0.30;;;0.30;;
77678;SDS011;66835;49.478;10.724;2023-04-30T01:20:03;0.25;;;0.25;;
77678;SDS011;66835;49.478;10.724;2023-04-30T01:22:45;0.38;;;0.38;;
77678;SDS011;66835;49.478;10.724;2023-04-30T01:25:20;0.30;;;0.30;;
77678;SDS011;66835;49.478;10.724;2023-04-30T01:28:04;0.30;;;0.30;;
77678;SDS011;66835;49.478;10.724;2023-04-30T01:30:30;0.17;;;0.17;;
77678;SDS011;66835;49.478;10.724;2023-04-30T01:32:57;0.30;;;0.30;;
77678;SDS011;66835;49.478;10.724;2023-04-30T01:35:24;0.30;;;0.30;;
77678;SDS011;66835;49.478;10.724;2023-04-30T01:37:58;0.25;;;0.25;;
77678;SDS011;66835;49.478;10.724;2023-04-30T01:40:28;0.35;;;0.35;;
77678;SDS011;66835;49.478;10.724;2023-04-30T01:42:59;0.20;;;0.20;;
77678;SDS011;66835;49.478;10.724;2023-04-30T01:45:36;0.30;;;0.30;;
77678;SDS011;66835;49.478;10.724;2023-04-30T01:48:21;0.30;;;0.30;;
77678;SDS011;66835;49.478;10.724;2023-04-30T01:50:55;0.28;;;0.28;;
77678;SDS011;66835;49.478;10.724;2023-04-30T01:53:27;0.30;;;0.30;;
77678;SDS011;66835;49.478;10.724;2023-04-30T01:55:58;0.30;;;0.30;;
77678;SDS011;66835;49.478;10.724;2023-04-30T01:58:28;0.28;;;0.28;;
77678;SDS011;66835;49.478;10.724;2023-04-30T02:00:54;0.30;;;0.30;;
77678;SDS011;66835;49.478;10.724;2023-04-30T02:03:20;0.20;;;0.20;;
77678;SDS011;66835;49.478;10.724;2023-04-30T02:05:45;0.30;;;0.30;;
77678;SDS011;66835;49.478;10.724;2023-04-30T02:08:11;0.25;;;0.25;;
77678;SDS011;66835;49.478;10.724;2023-04-30T02:10:36;0.30;;;0.30;;
77678;SDS011;66835;49.478;10.724;2023-04-30T02:13:02;0.30;;;0.30;;
77678;SDS011;66835;49.478;10.724;2023-04-30T02:15:28;0.40;;;0.40;;
77678;SDS011;66835;49.478;10.724;2023-04-30T02:17:54;0.30;;;0.30;;
77678;SDS011;66835;49.478;10.724;2023-04-30T02:20:19;0.47;;;0.47;;
77678;SDS011;66835;49.478;10.724;2023-04-30T02:22:45;0.25;;;0.20;;
77678;SDS011;66835;49.478;10.724;2023-04-30T02:25:10;0.20;;;0.20;;
77678;SDS011;66835;49.478;10.724;2023-04-30T02:27:36;0.40;;;0.40;;
77678;SDS011;66835;49.478;10.724;2023-04-30T02:30:02;0.30;;;0.30;;
77678;SDS011;66835;49.478;10.724;2023-04-30T02:32:29;0.30;;;0.30;;
77678;SDS011;66835;49.478;10.724;2023-04-30T02:34:55;0.22;;;0.22;;
77678;SDS011;66835;49.478;10.724;2023-04-30T02:37:20;0.32;;;0.32;;
77678;SDS011;66835;49.478;10.724;2023-04-30T02:39:46;0.30;;;0.30;;
77678;SDS011;66835;49.478;10.724;2023-04-30T02:42:12;0.20;;;0.20;;
77678;SDS011;66835;49.478;10.724;2023-04-30T02:44:37;0.30;;;0.30;;
77678;SDS011;66835;49.478;10.724;2023-04-30T02:47:03;0.20;;;0.20;;
77678;SDS011;66835;49.478;10.724;2023-04-30T02:49:29;0.30;;;0.30;;
77678;SDS011;66835;49.478;10.724;2023-04-30T02:51:55;0.20;;;0.20;;
77678;SDS011;66835;49.478;10.724;2023-04-30T02:54:20;0.20;;;0.20;;
77678;SDS011;66835;49.478;10.724;2023-04-30T02:56:45;0.30;;;0.30;;
77678;SDS011;66835;49.478;10.724;2023-04-30T02:59:11;0.30;;;0.30;;
77678;SDS011;66835;49.478;10.724;2023-04-30T03:01:36;0.30;;;0.30;;
77678;SDS011;66835;49.478;10.724;2023-04-30T03:04:02;0.30;;;0.30;;
77678;SDS011;66835;49.478;10.724;2023-04-30T03:06:30;0.30;;;0.30;;
77678;SDS011;66835;49.478;10.724;2023-04-30T03:08:55;0.30;;;0.30;;
77678;SDS011;66835;49.478;10.724;2023-04-30T03:11:21;0.25;;;0.25;;
77678;SDS011;66835;49.478;10.724;2023-04-30T03:13:46;0.30;;;0.30;;
77678;SDS011;66835;49.478;10.724;2023-04-30T03:16:15;0.30;;;0.30;;
77678;SDS011;66835;49.478;10.724;2023-04-30T03:18:41;0.30;;;0.30;;
77678;SDS011;66835;49.478;10.724;2023-04-30T03:21:06;0.33;;;0.33;;
77678;SDS011;66835;49.478;10.724;2023-04-30T03:23:33;0.20;;;0.20;;
77678;SDS011;66835;49.478;10.724;2023-04-30T03:25:58;0.40;;;0.40;;
77678;SDS011;66835;49.478;10.724;2023-04-30T03:28:24;0.30;;;0.30;;
77678;SDS011;66835;49.478;10.724;2023-04-30T03:30:49;0.20;;;0.20;;
77678;SDS011;66835;49.478;10.724;2023-04-30T03:33:15;0.40;;;0.40;;
77678;SDS011;66835;49.478;10.724;2023-04-30T03:35:40;0.30;;;0.30;;
77678;SDS011;66835;49.478;10.724;2023-04-30T03:38:06;0.22;;;0.22;;
77678;SDS011;66835;49.478;10.724;2023-04-30T03:40:32;0.22;;;0.22;;
77678;SDS011;66835;49.478;10.724;2023-04-30T03:42:58;0.25;;;0.25;;
77678;SDS011;66835;49.478;10.724;2023-04-30T03:45:23;0.25;;;0.25;;
77678;SDS011;66835;49.478;10.724;2023-04-30T03:47:49;0.30;;;0.30;;
77678;SDS011;66835;49.478;10.724;2023-04-30T03:50:15;0.30;;;0.30;;
77678;SDS011;66835;49.478;10.724;2023-04-30T03:52:41;0.25;;;0.25;;
77678;SDS011;66835;49.478;10.724;2023-04-30T03:55:07;0.30;;;0.30;;
77678;SDS011;66835;49.478;10.724;2023-04-30T03:57:34;0.30;;;0.30;;
77678;SDS011;66835;49.478;10.724;2023-04-30T03:59:59;0.30;;;0.30;;
77678;SDS011;66835;49.478;10.724;2023-04-30T04:02:25;0.30;;;0.30;;
77678;SDS011;66835;49.478;10.724;2023-04-30T04:04:50;0.30;;;0.30;;
77678;SDS011;66835;49.478;10.724;2023-04-30T04:07:16;0.30;;;0.30;;
77678;SDS011;66835;49.478;10.724;2023-04-30T04:09:41;0.30;;;0.30;;
77678;SDS011;66835;49.478;10.724;2023-04-30T04:12:07;0.25;;;0.25;;
77678;SDS011;66835;49.478;10.724;2023-04-30T04:14:33;0.40;;;0.40;;
77678;SDS011;66835;49.478;10.724;2023-04-30T04:16:59;0.40;;;0.40;;
77678;SDS011;66835;49.478;10.724;2023-04-30T04:19:25;0.30;;;0.30;;
77678;SDS011;66835;49.478;10.724;2023-04-30T04:21:50;0.32;;;0.32;;
77678;SDS011;66835;49.478;10.724;2023-04-30T04:24:16;0.40;;;0.40;;
77678;SDS011;66835;49.478;10.724;2023-04-30T04:26:41;0.40;;;0.40;;
77678;SDS011;66835;49.478;10.724;2023-04-30T04:29:06;0.25;;;0.25;;
77678;SDS011;66835;49.478;10.724;2023-04-30T04:31:37;0.30;;;0.30;;
77678;SDS011;66835;49.478;10.724;2023-04-30T04:34:03;0.28;;;0.28;;
77678;SDS011;66835;49.478;10.724;2023-04-30T04:36:29;0.20;;;0.20;;
77678;SDS011;66835;49.478;10.724;2023-04-30T04:38:55;0.30;;;0.20;;
77678;SDS011;66835;49.478;10.724;2023-04-30T04:41:21;0.30;;;0.30;;
77678;SDS011;66835;49.478;10.724;2023-04-30T04:43:47;0.30;;;0.30;;
77678;SDS011;66835;49.478;10.724;2023-04-30T04:46:12;0.30;;;0.30;;
77678;SDS011;66835;49.478;10.724;2023-04-30T04:48:41;0.43;;;0.43;;
77678;SDS011;66835;49.478;10.724;2023-04-30T04:51:07;0.30;;;0.30;;
77678;SDS011;66835;49.478;10.724;2023-04-30T04:53:33;0.20;;;0.20;;
77678;SDS011;66835;49.478;10.724;2023-04-30T04:55:58;0.40;;;0.40;;
77678;SDS011;66835;49.478;10.724;2023-04-30T04:58:23;0.30;;;0.30;;
77678;SDS011;66835;49.478;10.724;2023-04-30T05:00:49;0.45;;;0.45;;
77678;SDS011;66835;49.478;10.724;2023-04-30T05:03:14;0.40;;;0.40;;
77678;SDS011;66835;49.478;10.724;2023-04-30T05:05:41;0.43;;;0.43;;
77678;SDS011;66835;49.478;10.724;2023-04-30T05:08:07;0.30;;;0.30;;
77678;SDS011;66835;49.478;10.724;2023-04-30T05:10:32;0.37;;;0.37;;
77678;SDS011;66835;49.478;10.724;2023-04-30T05:12:58;0.30;;;0.30;;
77678;SDS011;66835;49.478;10.724;2023-04-30T05:15:24;0.30;;;0.30;;
77678;SDS011;66835;49.478;10.724;2023-04-30T05:17:49;0.30;;;0.30;;
77678;SDS011;66835;49.478;10.724;2023-04-30T05:20:15;0.30;;;0.30;;
77678;SDS011;66835;49.478;10.724;2023-04-30T05:22:42;0.40;;;0.40;;
77678;SDS011;66835;49.478;10.724;2023-04-30T05:25:07;0.28;;;0.28;;
77678;SDS011;66835;49.478;10.724;2023-04-30T05:27:33;0.40;;;0.40;;
77678;SDS011;66835;49.478;10.724;2023-04-30T05:29:58;0.30;;;0.30;;
77678;SDS011;66835;49.478;10.724;2023-04-30T05:32:25;0.30;;;0.30;;
77678;SDS011;66835;49.478;10.724;2023-04-30T05:34:51;0.40;;;0.40;;
77678;SDS011;66835;49.478;10.724;2023-04-30T05:37:17;0.35;;;0.35;;
77678;SDS011;66835;49.478;10.724;2023-04-30T05:39:45;0.20;;;0.20;;
77678;SDS011;66835;49.478;10.724;2023-04-30T05:42:10;0.30;;;0.30;;
77678;SDS011;66835;49.478;10.724;2023-04-30T05:44:36;0.28;;;0.25;;
77678;SDS011;66835;49.478;10.724;2023-04-30T05:47:01;0.40;;;0.40;;
77678;SDS011;66835;49.478;10.724;2023-04-30T05:49:27;0.30;;;0.30;;
77678;SDS011;66835;49.478;10.724;2023-04-30T05:51:52;0.30;;;0.30;;
77678;SDS011;66835;49.478;10.724;2023-04-30T05:54:17;0.33;;;0.33;;
77678;SDS011;66835;49.478;10.724;2023-04-30T05:56:44;0.30;;;0.30;;
77678;SDS011;66835;49.478;10.724;2023-04-30T05:59:09;0.20;;;0.20;;
77678;SDS011;66835;49.478;10.724;2023-04-30T06:01:35;0.28;;;0.28;;
77678;SDS011;66835;49.478;10.724;2023-04-30T06:04:00;0.22;;;0.22;;
77678;SDS011;66835;49.478;10.724;2023-04-30T06:06:27;0.20;;;0.20;;
77678;SDS011;66835;49.478;10.724;2023-04-30T06:08:53;0.33;;;0.33;;
77678;SDS011;66835;49.478;10.724;2023-04-30T06:11:18;0.20;;;0.20;;
77678;SDS011;66835;49.478;10.724;2023-04-30T06:13:46;0.20;;;0.20;;
77678;SDS011;66835;49.478;10.724;2023-04-30T06:16:11;0.28;;;0.28;;
77678;SDS011;66835;49.478;10.724;2023-04-30T06:18:37;0.20;;;0.20;;
77678;SDS011;66835;49.478;10.724;2023-04-30T06:21:02;0.30;;;0.30;;
77678;SDS011;66835;49.478;10.724;2023-04-30T06:23:27;0.20;;;0.20;;
77678;SDS011;66835;49.478;10.724;2023-04-30T06:25:53;0.30;;;0.30;;
77678;SDS011;66835;49.478;10.724;2023-04-30T06:28:18;0.30;;;0.30;;
77678;SDS011;66835;49.478;10.724;2023-04-30T06:30:45;0.23;;;0.23;;
77678;SDS011;66835;49.478;10.724;2023-04-30T06:33:11;0.30;;;0.30;;
77678;SDS011;66835;49.478;10.724;2023-04-30T06:35:36;0.32;;;0.30;;
77678;SDS011;66835;49.478;10.724;2023-04-30T06:38:01;0.30;;;0.30;;
77678;SDS011;66835;49.478;10.724;2023-04-30T06:40:27;0.30;;;0.30;;
77678;SDS011;66835;49.478;10.724;2023-04-30T06:42:52;0.30;;;0.30;;
77678;SDS011;66835;49.478;10.724;2023-04-30T06:45:18;0.20;;;0.20;;
77678;SDS011;66835;49.478;10.724;2023-04-30T06:47:45;0.28;;;0.28;;
77678;SDS011;66835;49.478;10.724;2023-04-30T06:50:11;0.38;;;0.38;;
77678;SDS011;66835;49.478;10.724;2023-04-30T06:52:36;0.20;;;0.20;;
77678;SDS011;66835;49.478;10.724;2023-04-30T06:55:02;0.40;;;0.40;;
77678;SDS011;66835;49.478;10.724;2023-04-30T06:57:27;0.40;;;0.40;;
77678;SDS011;66835;49.478;10.724;2023-04-30T06:59:53;0.30;;;0.30;;
77678;SDS011;66835;49.478;10.724;2023-04-30T07:02:19;0.22;;;0.20;;
77678;SDS011;66835;49.478;10.724;2023-04-30T07:04:45;0.20;;;0.13;;
77678;SDS011;66835;49.478;10.724;2023-04-30T07:07:11;0.20;;;0.20;;
77678;SDS011;66835;49.478;10.724;2023-04-30T07:09:36;0.38;;;0.38;;
77678;SDS011;66835;49.478;10.724;2023-04-30T07:12:02;0.20;;;0.20;;
77678;SDS011;66835;49.478;10.724;2023-04-30T07:14:27;0.30;;;0.30;;
77678;SDS011;66835;49.478;10.724;2023-04-30T07:16:53;0.30;;;0.30;;
77678;SDS011;66835;49.478;10.724;2023-04-30T07:19:18;0.20;;;0.20;;
77678;SDS011;66835;49.478;10.724;2023-04-30T07:21:45;0.20;;;0.20;;
77678;SDS011;66835;49.478;10.724;2023-04-30T07:24:11;0.10;;;0.10;;
77678;SDS011;66835;49.478;10.724;2023-04-30T07:26:36;0.20;;;0.20;;
77678;SDS011;66835;49.478;10.724;2023-04-30T07:29:03;0.28;;;0.28;;
77678;SDS011;66835;49.478;10.724;2023-04-30T07:31:29;0.55;;;0.20;;
77678;SDS011;66835;49.478;10.724;2023-04-30T07:33:54;0.10;;;0.10;;
77678;SDS011;66835;49.478;10.724;2023-04-30T07:36:20;0.28;;;0.28;;
77678;SDS011;66835;49.478;10.724;2023-04-30T07:38:46;0.20;;;0.20;;
77678;SDS011;66835;49.478;10.724;2023-04-30T07:41:12;0.20;;;0.20;;
77678;SDS011;66835;49.478;10.724;2023-04-30T07:43:37;0.20;;;0.20;;
77678;SDS011;66835;49.478;10.724;2023-04-30T07:46:03;0.17;;;0.17;;
77678;SDS011;66835;49.478;10.724;2023-04-30T07:48:28;0.20;;;0.20;;
77678;SDS011;66835;49.478;10.724;2023-04-30T07:50:54;0.10;;;0.10;;
77678;SDS011;66835;49.478;10.724;2023-04-30T07:53:20;0.30;;;0.30;;
77678;SDS011;66835;49.478;10.724;2023-04-30T07:55:48;0.15;;;0.15;;
77678;SDS011;66835;49.478;10.724;2023-04-30T07:58:13;0.20;;;0.20;;
77678;SDS011;66835;49.478;10.724;2023-04-30T08:00:38;0.20;;;0.20;;
77678;SDS011;66835;49.478;10.724;2023-04-30T08:03:04;0.22;;;0.22;;
77678;SDS011;66835;49.478;10.724;2023-04-30T08:05:29;0.28;;;0.28;;
77678;SDS011;66835;49.478;10.724;2023-04-30T08:07:55;0.20;;;0.20;;
77678;SDS011;66835;49.478;10.724;2023-04-30T08:10:20;0.22;;;0.22;;
77678;SDS011;66835;49.478;10.724;2023-04-30T08:12:47;0.22;;;0.20;;
77678;SDS011;66835;49.478;10.724;2023-04-30T08:15:12;0.30;;;0.30;;
77678;SDS011;66835;49.478;10.724;2023-04-30T08:17:37;0.10;;;0.10;;
77678;SDS011;66835;49.478;10.724;2023-04-30T08:20:03;0.20;;;0.20;;
77678;SDS011;66835;49.478;10.724;2023-04-30T08:22:30;0.20;;;0.20;;
77678;SDS011;66835;49.478;10.724;2023-04-30T08:24:55;0.13;;;0.13;;
77678;SDS011;66835;49.478;10.724;2023-04-30T08:27:21;0.20;;;0.20;;
77678;SDS011;66835;49.478;10.724;2023-04-30T08:29:48;0.35;;;0.25;;
77678;SDS011;66835;49.478;10.724;2023-04-30T08:32:13;0.40;;;0.30;;
77678;SDS011;66835;49.478;10.724;2023-04-30T08:34:39;0.13;;;0.13;;
77678;SDS011;66835;49.478;10.724;2023-04-30T08:37:04;0.20;;;0.20;;
77678;SDS011;66835;49.478;10.724;2023-04-30T08:39:30;0.20;;;0.20;;
77678;SDS011;66835;49.478;10.724;2023-04-30T08:41:55;0.20;;;0.20;;
77678;SDS011;66835;49.478;10.724;2023-04-30T08:44:22;0.10;;;0.10;;
77678;SDS011;66835;49.478;10.724;2023-04-30T08:46:49;0.30;;;0.30;;
77678;SDS011;66835;49.478;10.724;2023-04-30T08:49:18;0.20;;;0.20;;
77678;SDS011;66835;49.478;10.724;2023-04-30T08:51:43;0.08;;;0.08;;
77678;SDS011;66835;49.478;10.724;2023-04-30T08:54:09;0.20;;;0.20;;
77678;SDS011;66835;49.478;10.724;2023-04-30T08:56:36;0.17;;;0.17;;
77678;SDS011;66835;49.478;10.724;2023-04-30T08:59:02;0.13;;;0.10;;
77678;SDS011;66835;49.478;10.724;2023-04-30T09:01:27;0.15;;;0.15;;
77678;SDS011;66835;49.478;10.724;2023-04-30T09:03:55;0.20;;;0.20;;
77678;SDS011;66835;49.478;10.724;2023-04-30T09:06:20;0.20;;;0.20;;
77678;SDS011;66835;49.478;10.724;2023-04-30T09:08:46;0.15;;;0.15;;
77678;SDS011;66835;49.478;10.724;2023-04-30T09:11:19;0.20;;;0.20;;
77678;SDS011;66835;49.478;10.724;2023-04-30T09:13:48;0.20;;;0.20;;
77678;SDS011;66835;49.478;10.724;2023-04-30T09:16:15;0.30;;;0.25;;
77678;SDS011;66835;49.478;10.724;2023-04-30T09:18:40;0.20;;;0.20;;
77678;SDS011;66835;49.478;10.724;2023-04-30T09:21:07;0.17;;;0.17;;
77678;SDS011;66835;49.478;10.724;2023-04-30T09:23:32;0.13;;;0.13;;
77678;SDS011;66835;49.478;10.724;2023-04-30T09:25:58;0.10;;;0.10;;
77678;SDS011;66835;49.478;10.724;2023-04-30T09:28:24;0.20;;;0.20;;
77678;SDS011;66835;49.478;10.724;2023-04-30T09:30:52;0.10;;;0.10;;
77678;SDS011;66835;49.478;10.724;2023-04-30T09:33:18;0.20;;;0.20;;
77678;SDS011;66835;49.478;10.724;2023-04-30T09:35:44;0.20;;;0.20;;
77678;SDS011;66835;49.478;10.724;2023-04-30T09:38:25;0.10;;;0.10;;
77678;SDS011;66835;49.478;10.724;2023-04-30T09:40:51;0.13;;;0.13;;
77678;SDS011;66835;49.478;10.724;2023-04-30T09:43:17;0.20;;;0.20;;
77678;SDS011;66835;49.478;10.724;2023-04-30T09:45:43;0.10;;;0.10;;
77678;SDS011;66835;49.478;10.724;2023-04-30T09:48:14;0.20;;;0.20;;
77678;SDS011;66835;49.478;10.724;2023-04-30T09:50:40;0.38;;;0.25;;
77678;SDS011;66835;49.478;10.724;2023-04-30T09:53:05;0.20;;;0.20;;
77678;SDS011;66835;49.478;10.724;2023-04-30T09:55:34;0.20;;;0.13;;
77678;SDS011;66835;49.478;10.724;2023-04-30T09:58:00;0.20;;;0.20;;
77678;SDS011;66835;49.478;10.724;2023-04-30T10:00:27;0.10;;;0.10;;
77678;SDS011;66835;49.478;10.724;2023-04-30T10:02:54;0.20;;;0.20;;
77678;SDS011;66835;49.478;10.724;2023-04-30T10:05:20;0.20;;;0.20;;
77678;SDS011;66835;49.478;10.724;2023-04-30T10:07:45;0.10;;;0.10;;
77678;SDS011;66835;49.478;10.724;2023-04-30T10:10:11;0.17;;;0.15;;
77678;SDS011;66835;49.478;10.724;2023-04-30T10:12:47;0.10;;;0.10;;
77678;SDS011;66835;49.478;10.724;2023-04-30T10:15:16;0.10;;;0.10;;
77678;SDS011;66835;49.478;10.724;2023-04-30T10:17:45;0.20;;;0.20;;
77678;SDS011;66835;49.478;10.724;2023-04-30T10:20:11;0.20;;;0.20;;
77678;SDS011;66835;49.478;10.724;2023-04-30T10:22:37;0.20;;;0.20;;
77678;SDS011;66835;49.478;10.724;2023-04-30T10:25:03;0.13;;;0.13;;
77678;SDS011;66835;49.478;10.724;2023-04-30T10:27:29;0.10;;;0.10;;
77678;SDS011;66835;49.478;10.724;2023-04-30T10:29:55;0.25;;;0.25;;
77678;SDS011;66835;49.478;10.724;2023-04-30T10:32:21;0.13;;;0.10;;
77678;SDS011;66835;49.478;10.724;2023-04-30T10:34:49;0.20;;;0.20;;
77678;SDS011;66835;49.478;10.724;2023-04-30T10:37:19;0.10;;;0.10;;
77678;SDS011;66835;49.478;10.724;2023-04-30T10:39:46;0.03;;;0.03;;
77678;SDS011;66835;49.478;10.724;2023-04-30T10:42:12;0.20;;;0.20;;
77678;SDS011;66835;49.478;10.724;2023-04-30T10:44:38;0.10;;;0.10;;
77678;SDS011;66835;49.478;10.724;2023-04-30T10:47:05;0.20;;;0.20;;
77678;SDS011;66835;49.478;10.724;2023-04-30T10:49:31;0.20;;;0.20;;
77678;SDS011;66835;49.478;10.724;2023-04-30T10:51:57;0.10;;;0.10;;
77678;SDS011;66835;49.478;10.724;2023-04-30T10:54:25;0.10;;;0.10;;
77678;SDS011;66835;49.478;10.724;2023-04-30T10:56:52;0.10;;;0.10;;
77678;SDS011;66835;49.478;10.724;2023-04-30T10:59:20;0.28;;;0.28;;
77678;SDS011;66835;49.478;10.724;2023-04-30T11:01:55;0.10;;;0.10;;
77678;SDS011;66835;49.478;10.724;2023-04-30T11:04:23;0.17;;;0.17;;
77678;SDS011;66835;49.478;10.724;2023-04-30T11:09:34;0.10;;;0.10;;
77678;SDS011;66835;49.478;10.724;2023-04-30T11:12:08;0.30;;;0.30;;
77678;SDS011;66835;49.478;10.724;2023-04-30T11:14:35;0.20;;;0.20;;
77678;SDS011;66835;49.478;10.724;2023-04-30T11:17:05;0.00;;;0.00;;
77678;SDS011;66835;49.478;10.724;2023-04-30T11:19:32;0.10;;;0.10;;
77678;SDS011;66835;49.478;10.724;2023-04-30T11:22:14;0.10;;;0.10;;
77678;SDS011;66835;49.478;10.724;2023-04-30T11:24:53;0.20;;;0.20;;
77678;SDS011;66835;49.478;10.724;2023-04-30T11:27:29;0.20;;;0.20;;
77678;SDS011;66835;49.478;10.724;2023-04-30T11:29:56;0.10;;;0.10;;
77678;SDS011;66835;49.478;10.724;2023-04-30T11:32:22;0.00;;;0.00;;
77678;SDS011;66835;49.478;10.724;2023-04-30T11:34:50;0.10;;;0.10;;
77678;SDS011;66835;49.478;10.724;2023-04-30T11:37:17;0.10;;;0.10;;
77678;SDS011;66835;49.478;10.724;2023-04-30T11:39:43;0.10;;;0.10;;
77678;SDS011;66835;49.478;10.724;2023-04-30T11:42:14;0.00;;;0.00;;
77678;SDS011;66835;49.478;10.724;2023-04-30T11:44:40;0.13;;;0.13;;
77678;SDS011;66835;49.478;10.724;2023-04-30T11:47:05;0.10;;;0.10;;
77678;SDS011;66835;49.478;10.724;2023-04-30T11:49:31;0.20;;;0.20;;
77678;SDS011;66835;49.478;10.724;2023-04-30T11:51:57;0.10;;;0.10;;
77678;SDS011;66835;49.478;10.724;2023-04-30T11:54:23;0.03;;;0.03;;
77678;SDS011;66835;49.478;10.724;2023-04-30T11:56:49;0.15;;;0.15;;
77678;SDS011;66835;49.478;10.724;2023-04-30T11:59:14;0.10;;;0.10;;
77678;SDS011;66835;49.478;10.724;2023-04-30T12:01:41;0.17;;;0.17;;
77678;SDS011;66835;49.478;10.724;2023-04-30T12:04:06;0.20;;;0.20;;
77678;SDS011;66835;49.478;10.724;2023-04-30T12:06:35;0.17;;;0.17;;
77678;SDS011;66835;49.478;10.724;2023-04-30T12:09:02;0.10;;;0.10;;
77678;SDS011;66835;49.478;10.724;2023-04-30T12:11:33;0.10;;;0.10;;
77678;SDS011;66835;49.478;10.724;2023-04-30T12:14:00;0.10;;;0.10;;
77678;SDS011;66835;49.478;10.724;2023-04-30T12:16:37;0.10;;;0.10;;
77678;SDS011;66835;49.478;10.724;2023-04-30T12:19:04;0.13;;;0.13;;
77678;SDS011;66835;49.478;10.724;2023-04-30T12:21:29;0.10;;;0.10;;
77678;SDS011;66835;49.478;10.724;2023-04-30T12:23:55;0.00;;;0.00;;
77678;SDS011;66835;49.478;10.724;2023-04-30T12:26:22;0.10;;;0.10;;
77678;SDS011;66835;49.478;10.724;2023-04-30T12:28:47;0.20;;;0.20;;
77678;SDS011;66835;49.478;10.724;2023-04-30T12:31:13;0.03;;;0.03;;
77678;SDS011;66835;49.478;10.724;2023-04-30T12:33:39;0.10;;;0.10;;
77678;SDS011;66835;49.478;10.724;2023-04-30T12:36:04;0.13;;;0.13;;
77678;SDS011;66835;49.478;10.724;2023-04-30T12:38:34;0.20;;;0.20;;
77678;SDS011;66835;49.478;10.724;2023-04-30T12:41:03;0.22;;;0.22;;
77678;SDS011;66835;49.478;10.724;2023-04-30T12:43:30;0.00;;;0.00;;
77678;SDS011;66835;49.478;10.724;2023-04-30T12:45:55;0.10;;;0.10;;
77678;SDS011;66835;49.478;10.724;2023-04-30T12:48:22;0.10;;;0.10;;
77678;SDS011;66835;49.478;10.724;2023-04-30T12:50:52;0.08;;;0.08;;
77678;SDS011;66835;49.478;10.724;2023-04-30T12:53:18;0.10;;;0.10;;
77678;SDS011;66835;49.478;10.724;2023-04-30T12:58:32;0.20;;;0.20;;
77678;SDS011;66835;49.478;10.724;2023-04-30T13:00:57;0.10;;;0.10;;
77678;SDS011;66835;49.478;10.724;2023-04-30T13:03:23;0.17;;;0.17;;
77678;SDS011;66835;49.478;10.724;2023-04-30T13:05:49;0.10;;;0.10;;
77678;SDS011;66835;49.478;10.724;2023-04-30T13:08:15;0.10;;;0.10;;
77678;SDS011;66835;49.478;10.724;2023-04-30T13:10:41;0.08;;;0.08;;
77678;SDS011;66835;49.478;10.724;2023-04-30T13:13:06;0.10;;;0.10;;
77678;SDS011;66835;49.478;10.724;2023-04-30T13:15:33;0.10;;;0.10;;
77678;SDS011;66835;49.478;10.724;2023-04-30T13:17:59;0.10;;;0.10;;
77678;SDS011;66835;49.478;10.724;2023-04-30T13:20:24;0.10;;;0.10;;
77678;SDS011;66835;49.478;10.724;2023-04-30T13:22:50;0.10;;;0.10;;
77678;SDS011;66835;49.478;10.724;2023-04-30T13:25:16;0.10;;;0.10;;
77678;SDS011;66835;49.478;10.724;2023-04-30T13:27:41;0.10;;;0.10;;
77678;SDS011;66835;49.478;10.724;2023-04-30T13:30:08;0.00;;;0.00;;
77678;SDS011;66835;49.478;10.724;2023-04-30T13:32:35;0.10;;;0.10;;
77678;SDS011;66835;49.478;10.724;2023-04-30T13:35:01;0.10;;;0.10;;
77678;SDS011;66835;49.478;10.724;2023-04-30T13:37:29;0.00;;;0.00;;
77678;SDS011;66835;49.478;10.724;2023-04-30T13:39:55;0.10;;;0.10;;
77678;SDS011;66835;49.478;10.724;2023-04-30T13:42:20;0.00;;;0.00;;
77678;SDS011;66835;49.478;10.724;2023-04-30T13:44:46;0.00;;;0.00;;
77678;SDS011;66835;49.478;10.724;2023-04-30T13:47:13;0.00;;;0.00;;
77678;SDS011;66835;49.478;10.724;2023-04-30T13:49:40;0.10;;;0.10;;
77678;SDS011;66835;49.478;10.724;2023-04-30T13:52:06;0.10;;;0.10;;
77678;SDS011;66835;49.478;10.724;2023-04-30T13:54:31;0.10;;;0.10;;
77678;SDS011;66835;49.478;10.724;2023-04-30T13:56:57;0.10;;;0.10;;
77678;SDS011;66835;49.478;10.724;2023-04-30T13:59:23;0.10;;;0.03;;
77678;SDS011;66835;49.478;10.724;2023-04-30T14:01:49;0.10;;;0.10;;
77678;SDS011;66835;49.478;10.724;2023-04-30T14:04:14;0.13;;;0.13;;
77678;SDS011;66835;49.478;10.724;2023-04-30T14:06:41;0.10;;;0.10;;
77678;SDS011;66835;49.478;10.724;2023-04-30T14:09:07;0.10;;;0.10;;
77678;SDS011;66835;49.478;10.724;2023-04-30T14:11:32;0.10;;;0.10;;
77678;SDS011;66835;49.478;10.724;2023-04-30T14:13:58;0.10;;;0.10;;
77678;SDS011;66835;49.478;10.724;2023-04-30T14:16:23;0.03;;;0.03;;
77678;SDS011;66835;49.478;10.724;2023-04-30T14:18:49;0.20;;;0.10;;
77678;SDS011;66835;49.478;10.724;2023-04-30T14:21:14;0.10;;;0.10;;
77678;SDS011;66835;49.478;10.724;2023-04-30T14:23:41;0.05;;;0.05;;
77678;SDS011;66835;49.478;10.724;2023-04-30T14:26:10;0.03;;;0.03;;
77678;SDS011;66835;49.478;10.724;2023-04-30T14:28:35;0.20;;;0.20;;
77678;SDS011;66835;49.478;10.724;2023-04-30T14:31:00;0.00;;;0.00;;
77678;SDS011;66835;49.478;10.724;2023-04-30T14:33:26;0.15;;;0.15;;
77678;SDS011;66835;49.478;10.724;2023-04-30T14:35:51;0.10;;;0.10;;